Time;durP1;ratioP1;P1;durP2;ratioP2;P2;SDS_P1;SDS_P2;PMS_P1;PMS_P2;Temp;Humidity;BMP_temperature;BMP_pressure;BME280_temperature;BME280_humidity;BME280_pressure;Samples;Min_cycle;Max_cycle;Signal;HPM_P1;HPM_P2
2024/02/26 00:00:15;;;;;;;9.90;4.90;;;;;;;4.04;87.33;100098.35;109080;1253;71080;-80
2024/02/26 00:02:43;;;;;;;9.30;5.30;;;;;;;4.11;86.45;100094.83;108472;1253;59599;-79
2024/02/26 00:05:11;;;;;;;7.80;5.10;;;;;;;4.10;87.90;100096.48;109375;1253;58734;-78
2024/02/26 00:07:39;;;;;;;13.90;6.20;;;;;;;4.07;87.41;100102.14;108965;1253;71791;-78
2024/02/26 00:10:07;;;;;;;8.00;5.10;;;;;;;4.04;87.45;100103.60;108610;1254;70395;-77
2024/02/26 00:12:34;;;;;;;11.90;5.50;;;;;;;3.99;84.17;100097.73;107425;1254;71435;-79
2024/02/26 00:15:02;;;;;;;12.50;5.90;;;;;;;3.91;83.27;100088.10;106537;1253;59620;-78
2024/02/26 00:17:30;;;;;;;9.70;4.80;;;;;;;3.86;85.26;100082.39;106812;1254;59749;-79
2024/02/26 00:19:58;;;;;;;9.30;5.30;;;;;;;3.81;86.38;100080.30;106398;1253;71922;-79
2024/02/26 00:22:26;;;;;;;10.70;5.30;;;;;;;3.77;84.49;100080.27;106258;1254;68931;-80
2024/02/26 00:24:53;;;;;;;8.20;5.00;;;;;;;3.81;84.93;100069.84;108558;1254;74541;-77
2024/02/26 00:27:21;;;;;;;8.30;5.40;;;;;;;3.83;86.44;100069.30;107145;1254;59621;-79
2024/02/26 00:29:48;;;;;;;8.50;5.60;;;;;;;3.80;87.55;100077.75;106094;1257;59549;-82
2024/02/26 00:32:16;;;;;;;9.40;4.90;;;;;;;3.74;83.71;100072.59;106462;1254;72888;-83
2024/02/26 00:34:44;;;;;;;10.20;5.30;;;;;;;3.66;83.38;100074.07;107112;1254;69686;-84
2024/02/26 00:37:11;;;;;;;10.20;5.60;;;;;;;3.58;81.55;100088.16;108177;1259;71630;-78
2024/02/26 00:39:39;;;;;;;10.90;6.50;;;;;;;3.51;81.78;100078.73;109271;1258;58387;-83
2024/02/26 00:42:07;;;;;;;11.30;6.30;;;;;;;3.44;81.58;100082.42;106872;1253;60240;-83
2024/02/26 00:44:34;;;;;;;9.10;5.80;;;;;;;3.39;83.11;100084.31;108634;1254;73305;-82
2024/02/26 00:47:02;;;;;;;10.70;5.30;;;;;;;3.44;83.52;100092.52;108573;1252;68866;-83
2024/02/26 00:49:29;;;;;;;13.90;6.20;;;;;;;3.50;82.45;100084.88;108391;1259;70357;-79
2024/02/26 00:51:57;;;;;;;9.60;5.90;;;;;;;3.50;83.92;100095.63;107314;1253;59605;-78
2024/02/26 00:54:24;;;;;;;10.00;5.80;;;;;;;3.47;83.51;100086.69;107809;1253;59292;-78
2024/02/26 00:56:52;;;;;;;10.50;6.10;;;;;;;3.44;83.41;100079.23;107809;1254;71428;-81
2024/02/26 00:59:20;;;;;;;12.20;6.50;;;;;;;3.40;83.23;100083.74;106167;1254;70117;-82
2024/02/26 01:01:48;;;;;;;13.00;6.40;;;;;;;3.36;82.14;100079.49;106290;1253;70537;-79
2024/02/26 01:04:15;;;;;;;12.40;6.90;;;;;;;3.31;83.73;100085.42;108233;1253;58466;-81
2024/02/26 01:06:43;;;;;;;13.00;7.00;;;;;;;3.27;83.71;100079.93;109151;1253;59110;-82
2024/02/26 01:09:11;;;;;;;10.70;6.90;;;;;;;3.27;83.75;100071.06;106871;1253;71719;-81
2024/02/26 01:11:38;;;;;;;13.10;6.60;;;;;;;3.35;83.72;100072.17;106278;1254;69217;-84
2024/02/26 01:14:06;;;;;;;13.40;7.70;;;;;;;3.39;82.31;100076.15;106404;1260;71411;-84
2024/02/26 01:16:34;;;;;;;14.10;7.20;;;;;;;3.34;82.91;100078.38;106902;1259;59631;-82
2024/02/26 01:19:01;;;;;;;19.40;8.30;;;;;;;3.30;82.71;100073.42;107035;1254;59717;-83
2024/02/26 01:21:30;;;;;;;16.50;8.60;;;;;;;3.27;83.18;100074.36;107911;1253;71950;-81
2024/02/26 01:23:57;;;;;;;16.70;8.30;;;;;;;3.26;84.40;100073.92;108116;1257;67732;-80
2024/02/26 01:26:24;;;;;;;16.00;9.40;;;;;;;3.23;83.03;100073.80;106798;1253;71130;-80
2024/02/26 01:28:52;;;;;;;16.80;8.50;;;;;;;3.20;83.40;100071.22;106856;1253;59621;-78
2024/02/26 01:31:20;;;;;;;15.50;7.60;;;;;;;3.23;83.08;100067.98;108376;1254;59529;-79
2024/02/26 01:33:47;;;;;;;16.50;8.00;;;;;;;3.28;83.14;100072.85;108965;1253;71866;-81
2024/02/26 01:36:15;;;;;;;17.20;8.70;;;;;;;3.26;81.48;100069.39;107608;1254;68881;-80
2024/02/26 01:38:42;;;;;;;16.80;8.00;;;;;;;3.21;81.03;100071.14;106687;1259;71378;-81
2024/02/26 01:41:10;;;;;;;13.40;8.70;;;;;;;3.17;84.11;100063.02;106682;1257;59199;-80
2024/02/26 01:43:38;;;;;;;14.10;8.50;;;;;;;3.14;86.05;100061.11;109356;1252;59998;-83
2024/02/26 01:46:06;;;;;;;14.40;8.10;;;;;;;3.13;85.17;100064.88;109305;1253;71777;-83
2024/02/26 01:48:33;;;;;;;14.20;8.90;;;;;;;3.13;84.42;100066.23;108174;1254;70297;-83
2024/02/26 01:51:01;;;;;;;15.50;7.20;;;;;;;3.22;84.03;100055.65;107739;1253;71256;-81
2024/02/26 01:53:29;;;;;;;14.30;8.20;;;;;;;3.24;83.02;100061.95;106559;1259;59801;-82
2024/02/26 01:55:57;;;;;;;18.00;8.00;;;;;;;3.21;83.46;100051.36;106951;1253;60329;-80
2024/02/26 01:58:25;;;;;;;13.40;8.50;;;;;;;3.18;84.20;100054.03;108901;1253;71976;-81
2024/02/26 02:00:52;;;;;;;17.40;8.70;;;;;;;3.15;85.74;100044.42;109031;1254;68790;-82
2024/02/26 02:03:19;;;;;;;17.60;8.40;;;;;;;3.14;85.39;100051.35;107409;1253;71670;-84
2024/02/26 02:05:47;;;;;;;16.90;8.50;;;;;;;3.09;81.15;100045.59;106241;1253;59627;-83
2024/02/26 02:08:15;;;;;;;13.10;7.90;;;;;;;3.11;84.71;100039.43;106530;1255;59529;-82
2024/02/26 02:10:42;;;;;;;14.90;8.70;;;;;;;3.20;84.34;100033.75;106612;1254;73484;-83
2024/02/26 02:13:10;;;;;;;11.20;7.70;;;;;;;3.20;84.17;100034.47;106260;1254;69191;-82
2024/02/26 02:15:37;;;;;;;13.70;7.70;;;;;;;3.15;84.60;100032.33;107039;1254;72895;-85
2024/02/26 02:18:06;;;;;;;12.30;6.70;;;;;;;3.11;86.13;100031.78;106209;1254;59710;-81
2024/02/26 02:20:33;;;;;;;11.20;7.20;;;;;;;3.08;86.01;100039.17;106300;1254;59675;-83
2024/02/26 02:23:02;;;;;;;15.10;6.90;;;;;;;3.05;86.68;100034.48;106010;1254;71720;-82
2024/02/26 02:25:29;;;;;;;12.70;7.00;;;;;;;3.01;85.45;100041.25;107093;1253;69986;-86
2024/02/26 02:27:57;;;;;;;14.20;7.60;;;;;;;3.01;83.91;100049.96;107509;1257;72722;-81
2024/02/26 02:30:26;;;;;;;12.20;7.00;;;;;;;3.05;82.02;100043.09;107814;1252;59489;-81
2024/02/26 02:32:54;;;;;;;13.40;6.60;;;;;;;3.02;83.01;100039.31;106047;1254;59538;-81
2024/02/26 02:35:22;;;;;;;15.00;7.30;;;;;;;2.98;85.24;100047.84;106592;1254;71801;-77
2024/02/26 02:37:51;;;;;;;11.10;7.50;;;;;;;2.95;86.49;100052.35;109109;1254;68745;-81
2024/02/26 02:40:19;;;;;;;15.20;8.10;;;;;;;2.93;85.79;100050.00;109046;1253;72784;-81
2024/02/26 02:42:46;;;;;;;15.10;7.40;;;;;;;2.92;85.66;100042.10;107793;1253;59626;-79
2024/02/26 02:45:14;;;;;;;11.90;7.10;;;;;;;2.99;86.04;100047.70;107734;1259;59540;-79
2024/02/26 02:47:41;;;;;;;16.10;7.10;;;;;;;3.06;85.78;100041.61;107333;1253;71596;-81
2024/02/26 02:50:09;;;;;;;13.00;8.00;;;;;;;3.05;86.70;100043.06;107184;1254;70030;-78
2024/02/26 02:52:37;;;;;;;13.50;7.60;;;;;;;3.02;87.81;100043.80;106998;1254;71377;-80
2024/02/26 02:55:04;;;;;;;13.80;7.90;;;;;;;3.00;87.74;100044.68;106921;1252;59634;-81
2024/02/26 02:57:31;;;;;;;12.00;7.80;;;;;;;2.96;86.30;100049.68;108213;1254;59999;-82
2024/02/26 02:59:59;;;;;;;10.40;7.10;;;;;;;2.91;86.74;100048.59;106957;1256;71931;-80
2024/02/26 03:02:27;;;;;;;13.10;6.10;;;;;;;2.98;88.17;100054.44;106941;1256;71247;-81
2024/02/26 03:04:54;;;;;;;10.40;6.40;;;;;;;3.09;88.35;100059.96;106827;1257;71267;-78
2024/02/26 03:07:22;;;;;;;11.30;6.80;;;;;;;3.07;87.47;100060.20;107957;1252;59537;-82
2024/02/26 03:09:50;;;;;;;12.50;8.10;;;;;;;3.04;87.89;100066.42;107833;1254;59561;-83
2024/02/26 03:12:17;;;;;;;11.80;7.30;;;;;;;3.01;85.74;100077.00;106468;1256;71463;-82
2024/02/26 03:14:45;;;;;;;14.00;7.70;;;;;;;2.95;85.35;100075.65;106686;1254;68928;-81
2024/02/26 03:17:13;;;;;;;9.80;7.20;;;;;;;2.90;87.10;100073.85;107034;1256;71491;-82
2024/02/26 03:19:40;;;;;;;12.00;7.10;;;;;;;2.86;85.34;100075.90;106437;1254;60819;-84
2024/02/26 03:22:08;;;;;;;14.70;7.20;;;;;;;2.91;85.95;100069.63;106544;1259;60344;-84
2024/02/26 03:24:35;;;;;;;13.30;6.70;;;;;;;2.94;85.87;100068.83;107424;1254;73636;-79
2024/02/26 03:27:04;;;;;;;11.60;7.70;;;;;;;2.92;86.31;100055.75;108368;1253;68259;-79
2024/02/26 03:29:32;;;;;;;11.80;7.20;;;;;;;2.89;86.73;100060.31;108237;1253;71274;-78
2024/02/26 03:32:00;;;;;;;13.20;8.00;;;;;;;2.87;87.47;100054.84;109132;1253;58270;-79
2024/02/26 03:35:54;;;;;;;13.40;6.90;;;;;;;2.88;88.80;100054.62;105458;1291;600103;-84
2024/02/26 03:38:22;;;;;;;10.10;6.80;;;;;;;2.91;89.21;100045.86;107606;1266;59842;-81
2024/02/26 03:40:49;;;;;;;10.50;6.90;;;;;;;3.02;88.44;100046.23;106133;1269;59740;-83
2024/02/26 03:43:17;;;;;;;11.60;7.20;;;;;;;3.05;89.25;100053.41;105407;1270;72439;-81
2024/02/26 03:45:44;;;;;;;14.90;6.90;;;;;;;3.02;88.19;100050.09;105359;1271;68776;-80
2024/02/26 03:48:12;;;;;;;11.50;7.20;;;;;;;2.98;88.12;100042.02;105844;1258;70752;-79
2024/02/26 03:50:40;;;;;;;18.00;8.00;;;;;;;2.94;88.02;100033.90;106917;1254;187492;-81
2024/02/26 03:53:09;;;;;;;15.80;8.70;;;;;;;2.89;87.51;100035.31;107602;1251;59978;-79
2024/02/26 03:55:41;;;;;;;16.50;7.70;;;;;;;2.87;87.44;100034.92;106317;1251;71060;-78
2024/02/26 03:58:09;;;;;;;13.40;8.10;;;;;;;2.92;85.82;100029.29;106119;1258;69055;-80
2024/02/26 04:00:37;;;;;;;12.00;7.30;;;;;;;2.92;87.29;100027.40;106611;1255;71483;-78
2024/02/26 04:03:04;;;;;;;13.90;8.00;;;;;;;2.89;88.00;100029.85;106780;1252;59666;-78
2024/02/26 04:05:32;;;;;;;11.50;7.80;;;;;;;2.86;86.74;100028.19;106254;1251;59564;-82
2024/02/26 04:08:00;;;;;;;17.00;7.90;;;;;;;2.81;86.46;100033.60;106294;1257;72707;-82
2024/02/26 04:10:27;;;;;;;16.60;8.90;;;;;;;2.78;88.41;100034.42;106325;1257;70281;-82
2024/02/26 04:12:54;;;;;;;30.00;15.70;;;;;;;2.78;89.50;100027.55;107409;1257;72577;-82
2024/02/26 04:15:22;;;;;;;13.30;7.90;;;;;;;2.88;90.24;100022.78;108374;1255;59688;-79
2024/02/26 04:17:49;;;;;;;15.50;7.20;;;;;;;2.94;89.74;100027.91;107368;1253;60001;-81
2024/02/26 04:20:17;;;;;;;13.80;7.80;;;;;;;2.94;89.33;100044.21;108507;1251;71606;-80
2024/02/26 04:22:45;;;;;;;15.40;7.80;;;;;;;2.93;88.40;100033.63;107302;1251;68706;-80
2024/02/26 04:25:12;;;;;;;14.30;8.10;;;;;;;2.92;89.25;100041.55;108971;1251;71428;-78
2024/02/26 04:27:40;;;;;;;16.10;8.10;;;;;;;2.90;88.64;100050.25;108312;1254;59430;-79
2024/02/26 04:30:07;;;;;;;15.50;7.30;;;;;;;2.87;88.55;100044.56;107806;1253;59791;-80
2024/02/26 04:32:35;;;;;;;14.30;8.00;;;;;;;2.93;89.40;100047.45;108432;1251;73776;-80
2024/02/26 04:35:03;;;;;;;24.10;15.00;;;;;;;3.00;88.91;100050.59;107796;1254;68927;-80
2024/02/26 04:37:31;;;;;;;12.80;7.40;;;;;;;3.00;89.06;100048.67;106906;1257;71068;-81
2024/02/26 04:39:59;;;;;;;16.30;8.30;;;;;;;2.97;89.46;100053.10;106303;1257;59694;-83
2024/02/26 04:42:27;;;;;;;16.30;8.70;;;;;;;2.92;88.29;100060.92;106389;1254;59706;-83
2024/02/26 04:44:54;;;;;;;12.20;7.60;;;;;;;2.85;86.27;100058.33;106448;1254;71607;-81
2024/02/26 04:47:22;;;;;;;13.30;8.30;;;;;;;2.78;87.16;100060.23;108584;1253;68765;-82
2024/02/26 04:49:50;;;;;;;13.70;7.20;;;;;;;2.82;88.74;100068.02;106566;1257;72062;-81
2024/02/26 04:52:18;;;;;;;12.20;7.70;;;;;;;2.88;88.06;100063.02;106173;1254;59628;-82
2024/02/26 04:54:46;;;;;;;19.20;9.00;;;;;;;2.83;86.47;100063.38;106133;1257;59691;-80
2024/02/26 04:57:13;;;;;;;15.60;8.70;;;;;;;2.76;85.35;100063.70;106265;1254;72631;-79
2024/02/26 04:59:42;;;;;;;9.40;6.70;;;;;;;2.70;86.28;100061.53;106081;1253;69003;-81
2024/02/26 05:02:10;;;;;;;11.90;7.60;;;;;;;2.62;85.91;100049.16;106514;1254;72562;-80
2024/02/26 05:04:37;;;;;;;16.10;7.30;;;;;;;2.55;85.57;100049.14;107634;1254;59522;-80
2024/02/26 05:07:05;;;;;;;12.30;6.30;;;;;;;2.56;86.85;100053.95;109069;1254;59250;-79
2024/02/26 05:09:32;;;;;;;11.20;6.20;;;;;;;2.66;86.35;100053.08;106251;1257;73404;-76
2024/02/26 05:12:00;;;;;;;13.20;7.00;;;;;;;2.65;86.54;100057.13;106510;1254;70318;-82
2024/02/26 05:14:27;;;;;;;9.00;6.30;;;;;;;2.62;86.87;100053.51;108611;1253;70791;-82
2024/02/26 05:16:56;;;;;;;15.80;7.80;;;;;;;2.58;85.96;100052.92;107616;1253;59739;-82
2024/02/26 05:19:24;;;;;;;12.30;7.00;;;;;;;2.55;87.56;100053.67;109207;1253;58816;-82
2024/02/26 05:21:51;;;;;;;15.60;7.50;;;;;;;2.52;87.58;100054.72;108690;1254;70791;-82
2024/02/26 05:24:22;;;;;;;15.60;7.80;;;;;;;2.51;88.04;100060.20;108879;1259;68814;-83
2024/02/26 05:26:50;;;;;;;13.20;7.40;;;;;;;2.58;86.72;100060.41;107694;1254;71457;-80
2024/02/26 05:29:18;;;;;;;13.90;7.30;;;;;;;2.64;86.75;100062.64;106142;1259;59592;-83
2024/02/26 05:31:47;;;;;;;15.60;7.70;;;;;;;2.62;86.95;100075.38;106880;1257;62340;-82
2024/02/26 05:34:14;;;;;;;11.90;7.90;;;;;;;2.56;84.86;100073.34;107586;1253;72079;-82
2024/02/26 05:36:42;;;;;;;17.50;9.60;;;;;;;2.52;86.57;100082.52;107870;1253;68749;-82
2024/02/26 05:39:11;;;;;;;12.90;8.10;;;;;;;2.49;87.14;100084.33;106736;1254;72729;-82
2024/02/26 05:41:44;;;;;;;11.60;7.20;;;;;;;2.48;87.95;100088.62;107751;1254;59843;-80
2024/02/26 05:44:12;;;;;;;11.30;6.30;;;;;;;2.54;87.33;100095.30;107037;1254;61190;-82
2024/02/26 05:46:40;;;;;;;15.40;6.90;;;;;;;2.60;86.10;100085.31;106234;1259;71731;-82
2024/02/26 05:49:07;;;;;;;15.30;8.00;;;;;;;2.59;88.23;100095.52;106046;1254;70549;-79
2024/02/26 05:51:35;;;;;;;12.20;7.10;;;;;;;2.56;88.47;100095.19;106039;1254;71504;-81
2024/02/26 05:54:03;;;;;;;12.00;7.40;;;;;;;2.55;88.76;100099.65;105987;1254;59723;-80
2024/02/26 05:56:30;;;;;;;14.60;7.80;;;;;;;2.54;88.36;100110.92;106134;1254;60106;-81
2024/02/26 05:58:58;;;;;;;15.30;8.40;;;;;;;2.53;86.26;100114.27;106284;1253;71804;-81
2024/02/26 06:01:26;;;;;;;14.80;7.90;;;;;;;2.60;87.22;100109.61;106348;1253;69120;-74
2024/02/26 06:03:53;;;;;;;12.60;7.10;;;;;;;2.62;86.64;100106.70;106492;1253;71447;-78
2024/02/26 06:06:23;;;;;;;15.80;8.40;;;;;;;2.60;87.20;100109.45;106202;1258;59608;-78
2024/02/26 06:08:51;;;;;;;15.40;8.30;;;;;;;2.58;86.54;100108.36;106582;1257;59556;-76
2024/02/26 06:11:19;;;;;;;13.00;7.70;;;;;;;2.58;87.18;100109.91;107602;1254;71733;-77
2024/02/26 06:13:46;;;;;;;15.90;8.20;;;;;;;2.59;86.58;100107.41;109058;1254;69700;-74
2024/02/26 06:16:13;;;;;;;17.30;8.30;;;;;;;2.70;86.98;100106.98;107471;1255;70277;-73
2024/02/26 06:18:41;;;;;;;11.50;7.80;;;;;;;2.79;87.51;100099.70;106159;1254;59615;-74
2024/02/26 06:21:10;;;;;;;14.50;8.70;;;;;;;2.80;87.40;100100.36;106056;1254;60141;-74
2024/02/26 06:23:40;;;;;;;14.80;8.50;;;;;;;2.79;87.47;100096.73;106182;1257;72268;-75
2024/02/26 06:26:07;;;;;;;15.70;8.60;;;;;;;2.76;86.94;100094.51;106103;1255;69359;-76
2024/02/26 06:28:35;;;;;;;20.70;9.40;;;;;;;2.78;88.85;100091.41;106201;1257;71554;-74
2024/02/26 06:31:04;;;;;;;15.40;9.50;;;;;;;2.79;88.82;100086.92;106114;1251;59601;-76
2024/02/26 06:33:31;;;;;;;16.30;8.30;;;;;;;2.86;85.57;100091.65;106279;1253;59618;-74
2024/02/26 06:35:59;;;;;;;18.30;8.40;;;;;;;2.93;83.77;100085.05;106397;1254;72377;-76
2024/02/26 06:38:26;;;;;;;13.50;8.20;;;;;;;2.91;85.89;100086.77;106396;1257;68691;-76
2024/02/26 06:40:54;;;;;;;15.90;8.80;;;;;;;2.91;87.12;100085.39;106958;1254;72828;-75
2024/02/26 06:43:21;;;;;;;14.60;8.30;;;;;;;2.91;87.01;100089.79;106063;1257;59759;-74
2024/02/26 06:45:49;;;;;;;19.80;9.10;;;;;;;2.90;86.56;100084.20;105903;1254;60079;-73
2024/02/26 06:48:16;;;;;;;18.20;8.60;;;;;;;2.92;87.04;100090.20;105733;1254;72930;-73
2024/02/26 06:50:44;;;;;;;12.70;8.30;;;;;;;3.01;87.18;100087.08;106033;1254;72394;-72
2024/02/26 06:53:12;;;;;;;16.80;9.30;;;;;;;3.02;86.25;100087.70;105960;1254;72633;-73
2024/02/26 06:55:40;;;;;;;19.60;10.40;;;;;;;2.98;85.86;100092.38;105986;1254;59730;-73
2024/02/26 06:58:08;;;;;;;15.80;9.20;;;;;;;2.92;85.36;100083.17;105578;1254;60131;-71
2024/02/26 07:00:35;;;;;;;14.30;8.20;;;;;;;2.88;86.46;100083.11;105883;1252;73252;-72
2024/02/26 07:03:04;;;;;;;21.00;9.20;;;;;;;2.87;86.62;100089.00;106074;1256;69346;-72
2024/02/26 07:05:31;;;;;;;14.50;9.30;;;;;;;2.95;85.77;100087.16;107811;1253;72737;-73
2024/02/26 07:07:59;;;;;;;17.80;8.90;;;;;;;3.04;84.43;100080.11;108226;1254;60336;-73
2024/02/26 07:10:26;;;;;;;17.30;9.70;;;;;;;3.04;84.99;100077.27;106022;1254;60343;-74
2024/02/26 07:12:54;;;;;;;17.80;10.10;;;;;;;3.04;85.51;100078.66;105911;1254;71880;-71
2024/02/26 07:15:21;;;;;;;17.40;9.80;;;;;;;3.10;86.32;100079.29;105920;1254;70787;-73
2024/02/26 07:17:49;;;;;;;15.60;9.90;;;;;;;3.16;86.34;100082.86;105971;1257;72599;-75
2024/02/26 07:20:18;;;;;;;17.10;9.90;;;;;;;3.25;85.95;100088.37;105851;1252;61183;-75
2024/02/26 07:22:47;;;;;;;18.20;9.60;;;;;;;3.40;85.85;100087.98;106034;1257;61146;-74
2024/02/26 07:25:16;;;;;;;19.70;9.40;;;;;;;3.52;85.44;100100.69;105854;1259;72866;-73
2024/02/26 07:27:44;;;;;;;17.70;9.60;;;;;;;3.57;84.28;100099.09;106083;1252;72285;-73
2024/02/26 07:30:12;;;;;;;20.90;10.10;;;;;;;3.60;84.51;100103.27;106381;1253;74827;-71
2024/02/26 07:32:40;;;;;;;22.50;10.80;;;;;;;3.60;82.65;100102.44;105876;1254;61298;-73
2024/02/26 07:35:07;;;;;;;14.90;9.50;;;;;;;3.56;81.62;100112.67;105994;1253;59499;-73
2024/02/26 07:37:35;;;;;;;19.00;10.50;;;;;;;3.52;82.07;100104.59;105965;1253;71862;-73
2024/02/26 07:40:03;;;;;;;17.70;10.10;;;;;;;3.47;81.38;100112.80;105936;1259;69345;-74
2024/02/26 07:42:30;;;;;;;18.00;10.20;;;;;;;3.43;81.51;100107.48;105911;1256;74486;-72
2024/02/26 07:44:58;;;;;;;15.40;9.40;;;;;;;3.48;83.60;100111.87;105863;1254;61912;-73
2024/02/26 07:47:26;;;;;;;18.90;9.00;;;;;;;3.58;83.48;100112.65;105613;1256;60801;-74
2024/02/26 07:49:54;;;;;;;16.20;9.70;;;;;;;3.64;85.16;100110.12;105970;1257;75766;-74
2024/02/26 07:52:21;;;;;;;17.20;9.80;;;;;;;3.72;82.46;100113.77;105926;1256;70467;-73
2024/02/26 07:54:48;;;;;;;22.20;11.60;;;;;;;3.81;83.84;100110.98;106080;1253;72800;-74
2024/02/26 07:57:17;;;;;;;16.90;10.00;;;;;;;3.93;83.34;100108.13;107103;1253;60440;-73
2024/02/26 07:59:49;;;;;;;23.00;10.40;;;;;;;4.09;83.35;100107.95;107378;1256;60883;-73
2024/02/26 08:02:18;;;;;;;21.40;10.70;;;;;;;4.28;84.95;100109.65;105991;1256;76010;-74
2024/02/26 08:04:45;;;;;;;18.00;10.20;;;;;;;4.54;82.99;100098.40;105892;1254;72296;-76
2024/02/26 08:07:13;;;;;;;20.50;11.00;;;;;;;4.75;81.67;100097.59;106004;1253;71029;-73
2024/02/26 08:09:41;;;;;;;18.30;10.40;;;;;;;4.86;81.78;100088.14;106051;1254;60473;-73
2024/02/26 08:12:08;;;;;;;18.80;10.20;;;;;;;4.98;83.01;100088.55;105940;1253;62295;-74
2024/02/26 08:14:36;;;;;;;17.10;11.00;;;;;;;5.14;83.08;100088.85;105832;1253;74963;-75
2024/02/26 08:17:03;;;;;;;15.70;9.60;;;;;;;5.26;82.62;100085.98;105896;1253;72399;-75
2024/02/26 08:19:31;;;;;;;15.60;9.40;;;;;;;5.33;82.77;100081.86;105853;1256;75225;-74
2024/02/26 08:21:58;;;;;;;17.80;10.30;;;;;;;5.37;80.48;100084.33;106091;1254;60408;-73
2024/02/26 08:24:30;;;;;;;15.30;10.70;;;;;;;5.40;80.79;100081.27;106001;1254;60832;-75
2024/02/26 08:26:58;;;;;;;19.10;9.70;;;;;;;5.44;81.69;100078.89;105927;1253;74919;-75
2024/02/26 08:29:25;;;;;;;20.20;11.40;;;;;;;5.48;79.34;100079.77;105879;1257;72678;-77
2024/02/26 08:31:53;;;;;;;19.50;11.80;;;;;;;5.54;80.67;100081.88;105978;1253;73029;-74
2024/02/26 08:34:21;;;;;;;20.40;10.60;;;;;;;5.64;79.15;100079.48;105970;1257;60402;-74
2024/02/26 08:36:49;;;;;;;19.50;10.70;;;;;;;5.79;79.45;100084.77;105921;1256;60428;-72
2024/02/26 08:39:17;;;;;;;20.90;10.80;;;;;;;5.95;80.62;100083.98;105564;1254;74265;-77
2024/02/26 08:41:45;;;;;;;17.90;10.60;;;;;;;6.10;81.13;100076.13;106156;1253;74181;-79
2024/02/26 08:44:13;;;;;;;17.00;10.40;;;;;;;6.27;81.59;100076.85;105842;1253;74941;-77
2024/02/26 08:46:40;;;;;;;17.50;9.40;;;;;;;6.37;77.82;100076.17;106498;1253;60382;-76
2024/02/26 08:49:08;;;;;;;19.20;11.00;;;;;;;6.35;78.36;100069.24;108541;1252;59935;-77
2024/02/26 08:51:41;;;;;;;17.40;11.10;;;;;;;6.33;79.72;100078.08;108187;1254;72913;-78
2024/02/26 08:54:09;;;;;;;17.80;11.30;;;;;;;6.33;76.97;100075.63;106900;1253;68179;-78
2024/02/26 08:56:37;;;;;;;16.70;9.90;;;;;;;6.28;77.84;100084.63;106389;1255;74666;-80
2024/02/26 08:59:05;;;;;;;15.10;9.40;;;;;;;6.18;78.53;100083.27;105818;1254;60524;-77
2024/02/26 09:01:32;;;;;;;15.20;11.10;;;;;;;6.05;76.95;100086.08;105955;1256;61925;-77
2024/02/26 09:04:00;;;;;;;20.30;11.30;;;;;;;5.92;76.74;100087.50;106055;1254;72499;-76
2024/02/26 09:06:28;;;;;;;18.40;10.70;;;;;;;5.76;75.41;100089.52;105853;1258;68956;-74
2024/02/26 09:08:55;;;;;;;17.00;10.40;;;;;;;5.58;76.35;100087.90;106217;1253;72630;-81
2024/02/26 09:11:27;;;;;;;21.00;11.00;;;;;;;5.44;79.50;100086.91;106168;1254;61534;-79
2024/02/26 09:13:55;;;;;;;19.40;10.90;;;;;;;5.38;77.76;100091.27;106042;1254;61034;-79
2024/02/26 09:16:22;;;;;;;18.00;10.70;;;;;;;5.29;77.95;100086.92;106566;1252;73366;-82
2024/02/26 09:18:50;;;;;;;18.30;10.90;;;;;;;5.28;80.82;100086.29;106937;1259;71061;-80
2024/02/26 09:21:22;;;;;;;18.20;10.40;;;;;;;5.30;80.97;100089.43;106289;1254;73010;-76
2024/02/26 09:23:51;;;;;;;16.70;10.60;;;;;;;5.34;82.50;100081.06;106048;1254;60435;-78
2024/02/26 09:26:18;;;;;;;18.20;9.90;;;;;;;5.43;83.18;100087.35;105880;1254;62131;-75
2024/02/26 09:28:46;;;;;;;20.70;10.50;;;;;;;5.51;80.09;100082.80;105946;1253;71939;-78
2024/02/26 09:31:16;;;;;;;16.90;9.60;;;;;;;5.65;79.17;100083.81;106008;1256;71474;-74
2024/02/26 09:33:44;;;;;;;21.00;10.80;;;;;;;5.75;78.30;100087.02;105962;1256;73814;-77
2024/02/26 09:36:11;;;;;;;21.80;11.20;;;;;;;5.77;78.52;100087.92;106038;1253;60529;-78
2024/02/26 09:38:39;;;;;;;17.40;11.10;;;;;;;5.78;78.52;100075.50;106162;1256;60951;-78
2024/02/26 09:41:22;;;;;;;20.70;11.00;;;;;;;5.82;81.29;100076.91;107886;1253;74131;-79
2024/02/26 09:43:50;;;;;;;24.20;11.10;;;;;;;5.91;80.79;100071.98;108615;1254;72594;-80
2024/02/26 09:46:20;;;;;;;21.20;10.60;;;;;;;5.99;79.71;100075.52;107119;1257;72793;-77
2024/02/26 09:48:47;;;;;;;18.50;10.30;;;;;;;6.00;78.74;100072.27;106554;1256;60414;-77
2024/02/26 09:51:15;;;;;;;21.40;10.80;;;;;;;6.02;79.41;100073.89;106240;1254;60527;-77
2024/02/26 09:53:45;;;;;;;19.60;10.60;;;;;;;6.01;78.30;100064.83;106191;1254;73187;-77
2024/02/26 09:56:13;;;;;;;20.00;11.00;;;;;;;5.96;78.41;100065.77;106394;1256;69331;-76
2024/02/26 09:58:41;;;;;;;21.70;11.30;;;;;;;5.94;77.95;100071.73;106362;1253;72362;-77
2024/02/26 10:01:11;;;;;;;18.90;10.00;;;;;;;5.92;79.87;100061.84;106242;1259;60658;-76
2024/02/26 10:03:41;;;;;;;15.40;10.60;;;;;;;5.93;77.63;100068.98;106110;1257;60437;-76
2024/02/26 10:06:09;;;;;;;19.20;10.30;;;;;;;5.91;77.23;100065.77;106325;1254;76217;-76
2024/02/26 10:08:37;;;;;;;18.10;10.30;;;;;;;5.93;77.61;100069.70;106225;1256;71947;-77
2024/02/26 10:11:10;;;;;;;18.80;11.40;;;;;;;5.97;76.41;100064.63;106895;1254;71239;-76
2024/02/26 10:13:38;;;;;;;17.00;9.70;;;;;;;6.06;78.94;100065.39;106241;1254;61479;-75
2024/02/26 10:16:06;;;;;;;21.20;11.30;;;;;;;6.21;76.74;100064.17;106061;1254;62111;-75
2024/02/26 10:18:50;;;;;;;16.80;9.90;;;;;;;6.45;77.52;100068.28;106167;1253;73042;-76
2024/02/26 10:21:26;;;;;;;16.70;10.50;;;;;;;6.95;76.69;100056.67;106098;1254;70669;-78
2024/02/26 10:23:54;;;;;;;16.50;10.80;;;;;;;7.43;76.03;100058.48;106236;1256;73657;-78
2024/02/26 10:26:22;;;;;;;14.40;9.00;;;;;;;7.86;78.37;100052.38;106398;1256;60408;-77
2024/02/26 10:28:50;;;;;;;16.60;9.70;;;;;;;8.18;70.03;100058.47;106383;1252;61356;-77
2024/02/26 10:31:21;;;;;;;17.40;10.20;;;;;;;8.21;69.86;100045.95;106299;1254;74441;-76
2024/02/26 10:33:50;;;;;;;16.20;9.50;;;;;;;8.10;71.80;100043.45;107145;1253;70754;-75
2024/02/26 10:36:19;;;;;;;20.30;9.80;;;;;;;8.01;73.77;100046.42;108183;1253;71691;-79
2024/02/26 10:38:47;;;;;;;15.40;9.50;;;;;;;8.00;75.05;100047.97;108894;1253;59922;-77
2024/02/26 10:41:15;;;;;;;13.00;9.10;;;;;;;8.03;75.64;100045.53;107385;1254;62137;-78
2024/02/26 10:43:44;;;;;;;16.40;10.80;;;;;;;8.09;76.05;100037.78;106490;1254;73939;-80
2024/02/26 10:46:12;;;;;;;15.70;9.70;;;;;;;8.15;76.92;100036.48;106087;1253;70498;-77
2024/02/26 10:48:40;;;;;;;13.20;9.70;;;;;;;8.26;77.84;100030.83;106228;1254;73753;-80
2024/02/26 10:51:09;;;;;;;14.50;8.60;;;;;;;8.38;75.31;100034.15;106426;1253;60627;-81
2024/02/26 10:53:36;;;;;;;17.70;10.40;;;;;;;8.42;71.56;100035.35;106053;1253;60933;-75
2024/02/26 10:56:05;;;;;;;15.20;10.10;;;;;;;8.37;70.61;100032.84;106561;1252;72826;-80
2024/02/26 10:58:32;;;;;;;17.20;9.60;;;;;;;8.30;71.77;100028.02;106365;1259;68942;-78
2024/02/26 11:01:00;;;;;;;14.10;9.00;;;;;;;8.29;73.22;100032.54;106588;1252;74919;-80
2024/02/26 11:03:28;;;;;;;14.90;9.00;;;;;;;8.39;72.70;100027.02;106400;1255;60511;-79
2024/02/26 11:05:56;;;;;;;13.40;8.80;;;;;;;8.77;72.22;100027.96;106750;1254;61991;-79
2024/02/26 11:08:24;;;;;;;15.00;9.10;;;;;;;9.57;73.18;100026.02;106588;1254;74818;-79
2024/02/26 11:10:55;;;;;;;10.80;8.10;;;;;;;10.70;71.30;100025.92;106707;1254;69269;-78
2024/02/26 11:13:25;;;;;;;11.40;8.60;;;;;;;11.66;68.18;100026.98;107285;1253;71595;-79
2024/02/26 11:15:54;;;;;;;17.60;9.90;;;;;;;12.20;66.71;100024.62;107083;1254;61188;-78
2024/02/26 11:18:23;;;;;;;13.00;8.90;;;;;;;12.34;65.17;100024.88;107067;1262;61167;-78